sensor_id;sensor_type;location;lat;lon;timestamp;pressure;altitude;pressure_sealevel;temperature;humidity
82033;BME280;71595;52.180;4.512;2023-12-20T00:02:18;101671.19;;;7.82;76.72
82033;BME280;71595;52.180;4.512;2023-12-20T00:04:43;101681.09;;;7.83;77.13
82033;BME280;71595;52.180;4.512;2023-12-20T00:07:08;101679.75;;;7.80;77.47
82033;BME280;71595;52.180;4.512;2023-12-20T00:09:34;101684.44;;;7.80;77.27
82033;BME280;71595;52.180;4.512;2023-12-20T00:11:59;101671.19;;;7.82;77.33
82033;BME280;71595;52.180;4.512;2023-12-20T00:14:24;101686.09;;;7.81;77.76
82033;BME280;71595;52.180;4.512;2023-12-20T00:16:50;101664.69;;;7.78;77.03
82033;BME280;71595;52.180;4.512;2023-12-20T00:19:15;101656.44;;;7.78;77.35
82033;BME280;71595;52.180;4.512;2023-12-20T00:21:40;101653.09;;;7.81;76.88
82033;BME280;71595;52.180;4.512;2023-12-20T00:24:06;101661.03;;;7.82;76.67
82033;BME280;71595;52.180;4.512;2023-12-20T00:26:31;101666.84;;;7.81;77.27
82033;BME280;71595;52.180;4.512;2023-12-20T00:28:56;101670.19;;;7.78;76.56
82033;BME280;71595;52.180;4.512;2023-12-20T00:31:22;101670.19;;;7.78;76.85
82033;BME280;71595;52.180;4.512;2023-12-20T00:33:47;101667.44;;;7.78;77.25
82033;BME280;71595;52.180;4.512;2023-12-20T00:36:12;101663.84;;;7.77;76.14
82033;BME280;71595;52.180;4.512;2023-12-20T00:38:38;101666.28;;;7.79;76.29
82033;BME280;71595;52.180;4.512;2023-12-20T00:41:03;101660.81;;;7.79;75.51
82033;BME280;71595;52.180;4.512;2023-12-20T00:43:28;101666.09;;;7.75;75.98
82033;BME280;71595;52.180;4.512;2023-12-20T00:45:54;101673.00;;;7.72;75.86
82033;BME280;71595;52.180;4.512;2023-12-20T00:48:20;101669.94;;;7.74;76.39
82033;BME280;71595;52.180;4.512;2023-12-20T00:50:46;101676.28;;;7.74;76.66
82033;BME280;71595;52.180;4.512;2023-12-20T00:53:11;101670.19;;;7.78;76.64
82033;BME280;71595;52.180;4.512;2023-12-20T00:55:37;101678.72;;;7.76;76.73
82033;BME280;71595;52.180;4.512;2023-12-20T00:58:02;101675.97;;;7.76;76.94
82033;BME280;71595;52.180;4.512;2023-12-20T01:00:28;101669.59;;;7.81;76.47
82033;BME280;71595;52.180;4.512;2023-12-20T01:03:02;101675.09;;;7.81;76.59
82033;BME280;71595;52.180;4.512;2023-12-20T01:05:27;101678.63;;;7.81;76.30
82033;BME280;71595;52.180;4.512;2023-12-20T01:07:53;101672.84;;;7.83;76.90
82033;BME280;71595;52.180;4.512;2023-12-20T01:10:19;101677.84;;;7.81;77.11
82033;BME280;71595;52.180;4.512;2023-12-20T01:12:44;101670.91;;;7.83;77.55
82033;BME280;71595;52.180;4.512;2023-12-20T01:15:09;101664.28;;;7.84;77.30
82033;BME280;71595;52.180;4.512;2023-12-20T01:17:35;101670.59;;;7.85;76.56
82033;BME280;71595;52.180;4.512;2023-12-20T01:20:01;101667.84;;;7.85;77.11
82033;BME280;71595;52.180;4.512;2023-12-20T01:22:26;101664.78;;;7.86;76.49
82033;BME280;71595;52.180;4.512;2023-12-20T01:24:51;101669.19;;;7.87;76.88
82033;BME280;71595;52.180;4.512;2023-12-20T01:27:18;101669.50;;;7.86;77.42
82033;BME280;71595;52.180;4.512;2023-12-20T01:29:43;101666.44;;;7.87;76.63
82033;BME280;71595;52.180;4.512;2023-12-20T01:32:09;101667.78;;;7.90;77.21
82033;BME280;71595;52.180;4.512;2023-12-20T01:34:34;101666.34;;;7.92;77.02
82033;BME280;71595;52.180;4.512;2023-12-20T01:36:59;101666.94;;;7.89;77.01
82033;BME280;71595;52.180;4.512;2023-12-20T01:39:25;101656.78;;;7.90;76.04
82033;BME280;71595;52.180;4.512;2023-12-20T01:41:50;101667.16;;;7.93;76.05
82033;BME280;71595;52.180;4.512;2023-12-20T01:44:15;101670.53;;;7.90;76.60
82033;BME280;71595;52.180;4.512;2023-12-20T01:46:41;101667.16;;;7.93;76.53
82033;BME280;71595;52.180;4.512;2023-12-20T01:49:07;101682.63;;;7.89;77.03
82033;BME280;71595;52.180;4.512;2023-12-20T01:51:33;101662.47;;;7.94;77.16
82033;BME280;71595;52.180;4.512;2023-12-20T01:53:59;101659.53;;;7.90;76.20
82033;BME280;71595;52.180;4.512;2023-12-20T01:56:26;101656.44;;;7.91;76.92
82033;BME280;71595;52.180;4.512;2023-12-20T01:58:55;101653.50;;;7.88;76.34
82033;BME280;71595;52.180;4.512;2023-12-20T02:01:21;101653.78;;;7.86;77.17
82033;BME280;71595;52.180;4.512;2023-12-20T02:03:46;101656.34;;;7.83;76.93
82033;BME280;71595;52.180;4.512;2023-12-20T02:06:12;101659.09;;;7.83;76.95
82033;BME280;71595;52.180;4.512;2023-12-20T02:08:38;101664.09;;;7.81;77.34
82033;BME280;71595;52.180;4.512;2023-12-20T02:11:03;101663.47;;;7.84;77.18
82033;BME280;71595;52.180;4.512;2023-12-20T02:13:30;101666.75;;;7.86;76.91
82033;BME280;71595;52.180;4.512;2023-12-20T02:15:56;101665.94;;;7.85;75.62
82033;BME280;71595;52.180;4.512;2023-12-20T02:18:21;101668.16;;;7.83;75.16
82033;BME280;71595;52.180;4.512;2023-12-20T02:20:47;101671.19;;;7.82;76.00
82033;BME280;71595;52.180;4.512;2023-12-20T02:23:12;101658.59;;;7.81;76.22
82033;BME280;71595;52.180;4.512;2023-12-20T02:25:37;101661.63;;;7.79;76.50
82033;BME280;71595;52.180;4.512;2023-12-20T02:28:03;101648.69;;;7.80;76.13
82033;BME280;71595;52.180;4.512;2023-12-20T02:30:29;101651.22;;;7.76;75.79
82033;BME280;71595;52.180;4.512;2023-12-20T02:32:54;101654.78;;;7.77;75.15
82033;BME280;71595;52.180;4.512;2023-12-20T02:35:20;101645.94;;;7.80;75.31
82033;BME280;71595;52.180;4.512;2023-12-20T02:37:45;101649.81;;;7.79;75.83
82033;BME280;71595;52.180;4.512;2023-12-20T02:40:11;101647.88;;;7.79;76.30
82033;BME280;71595;52.180;4.512;2023-12-20T02:42:36;101649.19;;;7.82;75.94
82033;BME280;71595;52.180;4.512;2023-12-20T02:45:02;101636.59;;;7.81;76.22
82033;BME280;71595;52.180;4.512;2023-12-20T02:47:27;101626.38;;;7.81;75.63
82033;BME280;71595;52.180;4.512;2023-12-20T02:49:54;101628.03;;;7.82;76.24
82033;BME280;71595;52.180;4.512;2023-12-20T02:52:20;101624.75;;;7.80;76.13
82033;BME280;71595;52.180;4.512;2023-12-20T02:54:45;101619.25;;;7.80;76.00
82033;BME280;71595;52.180;4.512;2023-12-20T02:57:10;101618.34;;;7.85;75.77
82033;BME280;71595;52.180;4.512;2023-12-20T02:59:36;101623.34;;;7.83;76.07
82033;BME280;71595;52.180;4.512;2023-12-20T03:02:01;101634.94;;;7.80;76.51
82033;BME280;71595;52.180;4.512;2023-12-20T03:04:26;101636.34;;;7.77;75.87
82033;BME280;71595;52.180;4.512;2023-12-20T03:06:52;101643.19;;;7.80;75.81
82033;BME280;71595;52.180;4.512;2023-12-20T03:09:17;101629.44;;;7.80;75.09
82033;BME280;71595;52.180;4.512;2023-12-20T03:11:42;101616.81;;;7.79;75.20
82033;BME280;71595;52.180;4.512;2023-12-20T03:14:07;101618.44;;;7.80;75.34
82033;BME280;71595;52.180;4.512;2023-12-20T03:16:33;101629.44;;;7.80;75.45
82033;BME280;71595;52.180;4.512;2023-12-20T03:18:58;101623.94;;;7.80;74.95
82033;BME280;71595;52.180;4.512;2023-12-20T03:21:23;101618.44;;;7.80;75.31
82033;BME280;71595;52.180;4.512;2023-12-20T03:23:49;101609.44;;;7.74;75.29
82033;BME280;71595;52.180;4.512;2023-12-20T03:26:14;101607.53;;;7.74;75.08
82033;BME280;71595;52.180;4.512;2023-12-20T03:28:43;101609.44;;;7.74;75.64
82033;BME280;71595;52.180;4.512;2023-12-20T03:31:09;101613.34;;;7.73;75.27
82033;BME280;71595;52.180;4.512;2023-12-20T03:33:35;101618.00;;;7.72;75.43
82033;BME280;71595;52.180;4.512;2023-12-20T03:36:00;101619.66;;;7.73;75.28
82033;BME280;71595;52.180;4.512;2023-12-20T03:38:25;101617.19;;;7.72;75.40
82033;BME280;71595;52.180;4.512;2023-12-20T03:40:50;101618.53;;;7.74;75.59
82033;BME280;71595;52.180;4.512;2023-12-20T03:43:16;101603.25;;;7.68;75.33
82033;BME280;71595;52.180;4.512;2023-12-20T03:45:42;101622.91;;;7.76;75.69
82033;BME280;71595;52.180;4.512;2023-12-20T03:48:07;101608.66;;;7.73;76.14
82033;BME280;71595;52.180;4.512;2023-12-20T03:50:34;101623.50;;;7.72;75.99
82033;BME280;71595;52.180;4.512;2023-12-20T03:52:59;101613.63;;;7.71;76.29
82033;BME280;71595;52.180;4.512;2023-12-20T03:55:24;101602.94;;;7.70;76.18
82033;BME280;71595;52.180;4.512;2023-12-20T03:57:49;101613.09;;;7.69;76.04
82033;BME280;71595;52.180;4.512;2023-12-20T04:00:15;101606.00;;;7.68;76.44
82033;BME280;71595;52.180;4.512;2023-12-20T04:02:41;101607.59;;;7.69;76.78
82033;BME280;71595;52.180;4.512;2023-12-20T04:05:08;101610.91;;;7.71;76.41
82033;BME280;71595;52.180;4.512;2023-12-20T04:07:33;101618.84;;;7.73;75.82
82033;BME280;71595;52.180;4.512;2023-12-20T04:09:59;101614.44;;;7.72;76.09
82033;BME280;71595;52.180;4.512;2023-12-20T04:12:24;101604.84;;;7.69;76.18
82033;BME280;71595;52.180;4.512;2023-12-20T04:14:49;101620.84;;;7.67;75.49
82033;BME280;71595;52.180;4.512;2023-12-20T04:17:15;101602.72;;;7.66;75.74
82033;BME280;71595;52.180;4.512;2023-12-20T04:19:41;101616.56;;;7.61;76.33
82033;BME280;71595;52.180;4.512;2023-12-20T04:22:07;101605.75;;;7.65;76.16
82033;BME280;71595;52.180;4.512;2023-12-20T04:24:32;101598.66;;;7.64;76.29
82033;BME280;71595;52.180;4.512;2023-12-20T04:26:57;101595.16;;;7.58;76.55
82033;BME280;71595;52.180;4.512;2023-12-20T04:29:23;101608.31;;;7.61;77.09
82033;BME280;71595;52.180;4.512;2023-12-20T04:31:48;101599.25;;;7.61;76.34
82033;BME280;71595;52.180;4.512;2023-12-20T04:34:15;101596.19;;;7.62;76.34
82033;BME280;71595;52.180;4.512;2023-12-20T04:36:40;101588.47;;;7.64;76.32
82033;BME280;71595;52.180;4.512;2023-12-20T04:39:05;101595.59;;;7.65;75.81
82033;BME280;71595;52.180;4.512;2023-12-20T04:41:31;101595.59;;;7.65;76.29
82033;BME280;71595;52.180;4.512;2023-12-20T04:43:59;101599.97;;;7.66;75.56
82033;BME280;71595;52.180;4.512;2023-12-20T04:46:26;101583.16;;;7.68;76.72
82033;BME280;71595;52.180;4.512;2023-12-20T04:48:51;101577.38;;;7.69;76.29
82033;BME280;71595;52.180;4.512;2023-12-20T04:51:16;101575.44;;;7.70;76.09
82033;BME280;71595;52.180;4.512;2023-12-20T04:53:42;101566.91;;;7.71;76.17
82033;BME280;71595;52.180;4.512;2023-12-20T04:56:07;101563.84;;;7.73;76.25
82033;BME280;71595;52.180;4.512;2023-12-20T04:58:32;101562.00;;;7.68;76.09
82033;BME280;71595;52.180;4.512;2023-12-20T05:00:58;101570.75;;;7.70;76.02
82033;BME280;71595;52.180;4.512;2023-12-20T05:03:23;101576.25;;;7.70;76.25
82033;BME280;71595;52.180;4.512;2023-12-20T05:05:48;101593.25;;;7.72;76.60
82033;BME280;71595;52.180;4.512;2023-12-20T05:08:14;101589.41;;;7.73;76.71
82033;BME280;71595;52.180;4.512;2023-12-20T05:10:39;101591.34;;;7.73;77.07
82033;BME280;71595;52.180;4.512;2023-12-20T05:13:05;101586.66;;;7.73;77.22
82033;BME280;71595;52.180;4.512;2023-12-20T05:15:30;101590.50;;;7.72;76.49
82033;BME280;71595;52.180;4.512;2023-12-20T05:17:56;101604.25;;;7.72;76.58
82033;BME280;71595;52.180;4.512;2023-12-20T05:20:21;101597.66;;;7.73;77.10
82033;BME280;71595;52.180;4.512;2023-12-20T05:22:46;101594.31;;;7.77;77.20
82033;BME280;71595;52.180;4.512;2023-12-20T05:25:12;101585.44;;;7.80;76.40
82033;BME280;71595;52.180;4.512;2023-12-20T05:27:37;101582.91;;;7.83;76.69
82033;BME280;71595;52.180;4.512;2023-12-20T05:30:03;101569.97;;;7.84;76.55
82033;BME280;71595;52.180;4.512;2023-12-20T05:32:30;101570.78;;;7.84;76.16
82033;BME280;71595;52.180;4.512;2023-12-20T05:34:56;101566.09;;;7.85;76.53
82033;BME280;71595;52.180;4.512;2023-12-20T05:37:21;101566.63;;;7.87;76.72
82033;BME280;71595;52.180;4.512;2023-12-20T05:39:46;101579.78;;;7.90;76.24
82033;BME280;71595;52.180;4.512;2023-12-20T05:42:12;101563.28;;;7.90;76.68
82033;BME280;71595;52.180;4.512;2023-12-20T05:44:37;101572.03;;;7.92;76.73
82033;BME280;71595;52.180;4.512;2023-12-20T05:47:08;101578.53;;;7.96;76.48
82033;BME280;71595;52.180;4.512;2023-12-20T05:49:34;101569.78;;;7.94;76.77
82033;BME280;71595;52.180;4.512;2023-12-20T05:51:59;101573.63;;;7.93;76.90
82033;BME280;71595;52.180;4.512;2023-12-20T05:54:24;101577.72;;;7.96;76.43
82033;BME280;71595;52.180;4.512;2023-12-20T05:56:50;101582.91;;;7.97;76.72
82033;BME280;71595;52.180;4.512;2023-12-20T05:59:16;101586.16;;;7.99;76.36
82033;BME280;71595;52.180;4.512;2023-12-20T06:01:41;101591.16;;;7.97;76.84
82033;BME280;71595;52.180;4.512;2023-12-20T06:04:06;101574.38;;;7.99;76.79
82033;BME280;71595;52.180;4.512;2023-12-20T06:06:31;101598.63;;;7.97;75.97
82033;BME280;71595;52.180;4.512;2023-12-20T06:08:57;101566.41;;;7.97;76.35
82033;BME280;71595;52.180;4.512;2023-12-20T06:11:23;101579.06;;;7.98;76.53
82033;BME280;71595;52.180;4.512;2023-12-20T06:13:48;101572.72;;;7.98;76.47
82033;BME280;71595;52.180;4.512;2023-12-20T06:16:16;101567.75;;;8.00;76.79
82033;BME280;71595;52.180;4.512;2023-12-20T06:18:41;101582.00;;;8.02;76.90
82033;BME280;71595;52.180;4.512;2023-12-20T06:21:07;101573.25;;;8.00;76.75
82033;BME280;71595;52.180;4.512;2023-12-20T06:23:33;101575.16;;;7.99;75.92
82033;BME280;71595;52.180;4.512;2023-12-20T06:25:58;101572.41;;;7.99;76.28
82033;BME280;71595;52.180;4.512;2023-12-20T06:28:23;101570.19;;;8.01;76.10
82033;BME280;71595;52.180;4.512;2023-12-20T06:30:49;101576.19;;;8.03;76.12
82033;BME280;71595;52.180;4.512;2023-12-20T06:33:15;101578.16;;;8.03;76.41
82033;BME280;71595;52.180;4.512;2023-12-20T06:35:40;101570.81;;;7.98;76.67
82033;BME280;71595;52.180;4.512;2023-12-20T06:38:06;101567.81;;;7.95;76.68
82033;BME280;71595;52.180;4.512;2023-12-20T06:40:31;101568.13;;;7.93;76.53
82033;BME280;71595;52.180;4.512;2023-12-20T06:42:56;101574.28;;;7.90;76.54
82033;BME280;71595;52.180;4.512;2023-12-20T06:45:21;101566.81;;;7.90;76.82
82033;BME280;71595;52.180;4.512;2023-12-20T06:47:47;101560.19;;;7.91;77.26
82033;BME280;71595;52.180;4.512;2023-12-20T06:50:12;101550.31;;;7.90;77.07
82033;BME280;71595;52.180;4.512;2023-12-20T06:52:37;101552.88;;;7.87;77.32
82033;BME280;71595;52.180;4.512;2023-12-20T06:55:03;101550.63;;;7.89;77.20
82033;BME280;71595;52.180;4.512;2023-12-20T06:57:29;101555.00;;;7.90;77.31
82033;BME280;71595;52.180;4.512;2023-12-20T06:59:54;101550.63;;;7.89;77.84
82033;BME280;71595;52.180;4.512;2023-12-20T07:02:19;101542.38;;;7.89;77.42
82033;BME280;71595;52.180;4.512;2023-12-20T07:04:46;101532.47;;;7.88;77.92
82033;BME280;71595;52.180;4.512;2023-12-20T07:07:11;101547.88;;;7.89;77.95
82033;BME280;71595;52.180;4.512;2023-12-20T07:09:36;101518.22;;;7.86;77.63
82033;BME280;71595;52.180;4.512;2023-12-20T07:12:03;101529.44;;;7.89;77.64
82033;BME280;71595;52.180;4.512;2023-12-20T07:14:29;101523.63;;;7.91;77.38
82033;BME280;71595;52.180;4.512;2023-12-20T07:16:54;101519.25;;;7.90;77.46
82033;BME280;71595;52.180;4.512;2023-12-20T07:19:19;101531.06;;;7.90;77.50
82033;BME280;71595;52.180;4.512;2023-12-20T07:21:45;101520.88;;;7.91;77.46
82033;BME280;71595;52.180;4.512;2023-12-20T07:24:10;101527.50;;;7.90;76.37
82033;BME280;71595;52.180;4.512;2023-12-20T07:26:36;101519.88;;;7.87;76.91
82033;BME280;71595;52.180;4.512;2023-12-20T07:29:06;101525.88;;;7.89;76.86
82033;BME280;71595;52.180;4.512;2023-12-20T07:31:32;101532.47;;;7.88;77.13
82033;BME280;71595;52.180;4.512;2023-12-20T07:33:57;101542.06;;;7.90;77.10
82033;BME280;71595;52.180;4.512;2023-12-20T07:36:22;101546.44;;;7.91;77.27
82033;BME280;71595;52.180;4.512;2023-12-20T07:38:48;101553.06;;;7.90;77.92
82033;BME280;71595;52.180;4.512;2023-12-20T07:41:13;101544.81;;;7.90;77.61
82033;BME280;71595;52.180;4.512;2023-12-20T07:43:41;101545.03;;;7.94;77.67
82033;BME280;71595;52.180;4.512;2023-12-20T07:46:06;101547.16;;;7.97;78.16
82033;BME280;71595;52.180;4.512;2023-12-20T07:48:34;101545.53;;;7.96;77.83
82033;BME280;71595;52.180;4.512;2023-12-20T07:51:00;101554.81;;;8.00;78.11
82033;BME280;71595;52.180;4.512;2023-12-20T07:53:25;101558.06;;;8.02;78.28
82033;BME280;71595;52.180;4.512;2023-12-20T07:55:50;101558.88;;;8.03;78.15
82033;BME280;71595;52.180;4.512;2023-12-20T07:58:17;101560.72;;;8.07;77.56
82033;BME280;71595;52.180;4.512;2023-12-20T08:00:42;101548.59;;;8.08;78.08
82033;BME280;71595;52.180;4.512;2023-12-20T08:03:08;101552.66;;;8.11;77.91
82033;BME280;71595;52.180;4.512;2023-12-20T08:05:33;101566.44;;;8.11;77.87
82033;BME280;71595;52.180;4.512;2023-12-20T08:07:59;101565.00;;;8.14;78.19
82033;BME280;71595;52.180;4.512;2023-12-20T08:10:24;101565.31;;;8.12;78.83
82033;BME280;71595;52.180;4.512;2023-12-20T08:12:49;101575.41;;;8.17;78.14
82033;BME280;71595;52.180;4.512;2023-12-20T08:15:15;101559.91;;;8.21;78.08
82033;BME280;71595;52.180;4.512;2023-12-20T08:17:40;101554.41;;;8.21;78.09
82033;BME280;71595;52.180;4.512;2023-12-20T08:20:06;101553.28;;;8.22;78.08
82033;BME280;71595;52.180;4.512;2023-12-20T08:22:32;101553.28;;;8.22;78.27
82033;BME280;71595;52.180;4.512;2023-12-20T08:24:57;101554.91;;;8.23;78.23
82033;BME280;71595;52.180;4.512;2023-12-20T08:27:22;101545.03;;;8.22;78.20
82033;BME280;71595;52.180;4.512;2023-12-20T08:29:47;101548.59;;;8.22;77.85
82033;BME280;71595;52.180;4.512;2023-12-20T08:32:14;101561.44;;;8.27;78.14
82033;BME280;71595;52.180;4.512;2023-12-20T08:34:40;101553.69;;;8.29;78.05
82033;BME280;71595;52.180;4.512;2023-12-20T08:37:05;101554.50;;;8.30;77.80
82033;BME280;71595;52.180;4.512;2023-12-20T08:39:30;101564.91;;;8.33;77.82
82033;BME280;71595;52.180;4.512;2023-12-20T08:41:56;101564.09;;;8.32;77.45
82033;BME280;71595;52.180;4.512;2023-12-20T08:44:21;101571.81;;;8.30;77.47
82033;BME280;71595;52.180;4.512;2023-12-20T08:46:47;101578.34;;;8.34;77.16
82033;BME280;71595;52.180;4.512;2023-12-20T08:49:13;101575.59;;;8.34;76.99
82033;BME280;71595;52.180;4.512;2023-12-20T08:51:39;101575.50;;;8.39;77.00
82033;BME280;71595;52.180;4.512;2023-12-20T08:54:06;101576.53;;;8.43;77.51
82033;BME280;71595;52.180;4.512;2023-12-20T08:56:33;101581.19;;;8.43;77.04
82033;BME280;71595;52.180;4.512;2023-12-20T08:58:59;101568.28;;;8.43;77.13
82033;BME280;71595;52.180;4.512;2023-12-20T09:01:24;101565.53;;;8.43;77.15
82033;BME280;71595;52.180;4.512;2023-12-20T09:03:49;101551.25;;;8.41;77.43
82033;BME280;71595;52.180;4.512;2023-12-20T09:06:14;101555.34;;;8.44;77.86
82033;BME280;71595;52.180;4.512;2023-12-20T09:08:40;101558.59;;;8.46;77.17
82033;BME280;71595;52.180;4.512;2023-12-20T09:11:06;101557.16;;;8.49;76.89
82033;BME280;71595;52.180;4.512;2023-12-20T09:13:32;101556.84;;;8.50;76.82
82033;BME280;71595;52.180;4.512;2023-12-20T09:15:57;101552.69;;;8.53;77.08
82033;BME280;71595;52.180;4.512;2023-12-20T09:18:23;101544.91;;;8.55;77.32
82033;BME280;71595;52.180;4.512;2023-12-20T09:20:48;101552.69;;;8.53;77.27
82033;BME280;71595;52.180;4.512;2023-12-20T09:23:13;101542.47;;;8.53;77.30
82033;BME280;71595;52.180;4.512;2023-12-20T09:25:39;101549.00;;;8.57;77.21
82033;BME280;71595;52.180;4.512;2023-12-20T09:28:04;101555.31;;;8.58;77.45
82033;BME280;71595;52.180;4.512;2023-12-20T09:30:29;101553.06;;;8.60;77.22
82033;BME280;71595;52.180;4.512;2023-12-20T09:32:55;101554.19;;;8.59;77.45
82033;BME280;71595;52.180;4.512;2023-12-20T09:35:21;101561.84;;;8.62;77.19
82033;BME280;71595;52.180;4.512;2023-12-20T09:37:47;101557.94;;;8.63;77.62
82033;BME280;71595;52.180;4.512;2023-12-20T09:40:13;101556.34;;;8.62;77.57
82033;BME280;71595;52.180;4.512;2023-12-20T09:42:57;101558.78;;;8.63;77.46
82033;BME280;71595;52.180;4.512;2023-12-20T09:45:23;101573.53;;;8.68;77.51
82033;BME280;71595;52.180;4.512;2023-12-20T09:47:51;101577.94;;;8.69;77.58
82033;BME280;71595;52.180;4.512;2023-12-20T09:50:18;101579.75;;;8.73;76.72
82033;BME280;71595;52.180;4.512;2023-12-20T09:52:46;101575.06;;;8.74;76.98
82033;BME280;71595;52.180;4.512;2023-12-20T09:55:14;101566.50;;;8.75;76.81
82033;BME280;71595;52.180;4.512;2023-12-20T09:57:40;101563.06;;;8.70;76.44
82033;BME280;71595;52.180;4.512;2023-12-20T10:00:05;101572.63;;;8.72;76.94
82033;BME280;71595;52.180;4.512;2023-12-20T10:02:32;101578.13;;;8.72;76.97
82033;BME280;71595;52.180;4.512;2023-12-20T10:05:00;101574.25;;;8.73;76.67
82033;BME280;71595;52.180;4.512;2023-12-20T10:07:26;101573.16;;;8.74;76.88
82033;BME280;71595;52.180;4.512;2023-12-20T10:09:51;101576.69;;;8.75;76.71
82033;BME280;71595;52.180;4.512;2023-12-20T10:12:22;101586.91;;;8.74;76.73
82033;BME280;71595;52.180;4.512;2023-12-20T10:14:47;101588.53;;;8.75;76.77
82033;BME280;71595;52.180;4.512;2023-12-20T10:17:13;101588.53;;;8.75;76.79
82033;BME280;71595;52.180;4.512;2023-12-20T10:19:38;101587.91;;;8.78;76.76
82033;BME280;71595;52.180;4.512;2023-12-20T10:22:04;101586.00;;;8.79;76.84
82033;BME280;71595;52.180;4.512;2023-12-20T10:24:30;101580.16;;;8.80;76.88
82033;BME280;71595;52.180;4.512;2023-12-20T10:27:04;101573.81;;;8.80;76.72
82033;BME280;71595;52.180;4.512;2023-12-20T10:29:37;101574.84;;;8.84;76.44
82033;BME280;71595;52.180;4.512;2023-12-20T10:32:22;101591.06;;;8.86;76.78
82033;BME280;71595;52.180;4.512;2023-12-20T10:34:49;101579.13;;;8.90;76.75
82033;BME280;71595;52.180;4.512;2023-12-20T10:37:14;101574.63;;;8.94;76.77
82033;BME280;71595;52.180;4.512;2023-12-20T10:39:42;101560.03;;;8.94;76.09
82033;BME280;71595;52.180;4.512;2023-12-20T10:42:09;101577.16;;;8.91;76.45
82033;BME280;71595;52.180;4.512;2023-12-20T10:44:36;101562.78;;;8.94;76.72
82033;BME280;71595;52.180;4.512;2023-12-20T10:47:02;101555.00;;;8.96;76.60
82033;BME280;71595;52.180;4.512;2023-12-20T10:49:30;101554.91;;;9.01;77.17
82033;BME280;71595;52.180;4.512;2023-12-20T10:51:56;101546.31;;;9.03;76.96
82033;BME280;71595;52.180;4.512;2023-12-20T10:54:25;101534.38;;;9.07;77.67
82033;BME280;71595;52.180;4.512;2023-12-20T10:56:51;101526.59;;;9.09;76.59
82033;BME280;71595;52.180;4.512;2023-12-20T10:59:19;101537.00;;;9.12;76.73
82033;BME280;71595;52.180;4.512;2023-12-20T11:01:47;101542.50;;;9.12;76.04
82033;BME280;71595;52.180;4.512;2023-12-20T11:04:15;101546.38;;;9.11;76.14
82033;BME280;71595;52.180;4.512;2023-12-20T11:06:50;101549.44;;;9.10;76.24
82033;BME280;71595;52.180;4.512;2023-12-20T11:14:23;101535.34;;;9.11;76.38
82033;BME280;71595;52.180;4.512;2023-12-20T11:17:05;101538.13;;;9.11;76.76
82033;BME280;71595;52.180;4.512;2023-12-20T11:19:31;101547.22;;;9.12;76.78
82033;BME280;71595;52.180;4.512;2023-12-20T11:21:56;101537.00;;;9.12;76.28
82033;BME280;71595;52.180;4.512;2023-12-20T11:24:22;101518.03;;;9.11;76.41
82033;BME280;71595;52.180;4.512;2023-12-20T11:26:49;101518.81;;;9.11;76.35
82033;BME280;71595;52.180;4.512;2023-12-20T11:29:35;101518.81;;;9.11;76.33
82033;BME280;71595;52.180;4.512;2023-12-20T11:32:02;101497.63;;;9.12;76.67
82033;BME280;71595;52.180;4.512;2023-12-20T11:34:29;101508.31;;;9.13;76.38
82033;BME280;71595;52.180;4.512;2023-12-20T11:37:00;101488.72;;;9.15;76.53
82033;BME280;71595;52.180;4.512;2023-12-20T11:39:27;101504.41;;;9.14;76.42
82033;BME280;71595;52.180;4.512;2023-12-20T11:41:56;101483.69;;;9.17;76.43
82033;BME280;71595;52.180;4.512;2023-12-20T11:44:30;101500.41;;;9.21;76.54
82033;BME280;71595;52.180;4.512;2023-12-20T11:46:55;101493.28;;;9.20;76.47
82033;BME280;71595;52.180;4.512;2023-12-20T11:49:27;101499.44;;;9.16;76.70
82033;BME280;71595;52.180;4.512;2023-12-20T11:51:56;101500.06;;;9.13;76.51
82033;BME280;71595;52.180;4.512;2023-12-20T11:54:22;101501.66;;;9.14;76.32
82033;BME280;71595;52.180;4.512;2023-12-20T11:56:48;101517.22;;;9.10;76.19
82033;BME280;71595;52.180;4.512;2023-12-20T11:59:13;101504.56;;;9.09;76.14
82033;BME280;71595;52.180;4.512;2023-12-20T12:01:39;101502.28;;;9.11;76.31
82033;BME280;71595;52.180;4.512;2023-12-20T12:04:07;101504.56;;;9.09;76.56
82033;BME280;71595;52.180;4.512;2023-12-20T12:06:32;101495.66;;;9.12;76.25
82033;BME280;71595;52.180;4.512;2023-12-20T12:08:59;101486.59;;;9.12;76.35
82033;BME280;71595;52.180;4.512;2023-12-20T12:11:24;101492.91;;;9.12;76.68
82033;BME280;71595;52.180;4.512;2023-12-20T12:13:50;101492.91;;;9.12;76.68
82033;BME280;71595;52.180;4.512;2023-12-20T12:16:19;101486.59;;;9.12;76.61
82033;BME280;71595;52.180;4.512;2023-12-20T12:18:45;101489.53;;;9.15;76.88
82033;BME280;71595;52.180;4.512;2023-12-20T12:21:18;101478.00;;;9.13;76.54
82033;BME280;71595;52.180;4.512;2023-12-20T12:23:44;101466.97;;;9.13;76.42
82033;BME280;71595;52.180;4.512;2023-12-20T12:26:10;101459.22;;;9.15;76.64
82033;BME280;71595;52.180;4.512;2023-12-20T12:28:35;101469.44;;;9.15;76.70
82033;BME280;71595;52.180;4.512;2023-12-20T12:31:01;101460.00;;;9.16;76.73
82033;BME280;71595;52.180;4.512;2023-12-20T12:33:26;101453.06;;;9.18;76.84
82033;BME280;71595;52.180;4.512;2023-12-20T12:35:52;101454.69;;;9.20;76.54
82033;BME280;71595;52.180;4.512;2023-12-20T12:38:20;101451.44;;;9.17;76.14
82033;BME280;71595;52.180;4.512;2023-12-20T12:40:46;101452.56;;;9.16;76.57
82033;BME280;71595;52.180;4.512;2023-12-20T12:43:12;101459.38;;;9.19;76.84
82033;BME280;71595;52.180;4.512;2023-12-20T12:45:37;101449.19;;;9.20;76.57
82033;BME280;71595;52.180;4.512;2023-12-20T12:48:03;101456.31;;;9.21;76.67
82033;BME280;71595;52.180;4.512;2023-12-20T12:50:30;101447.56;;;9.18;76.60
82033;BME280;71595;52.180;4.512;2023-12-20T12:52:55;101449.50;;;9.18;76.48
82033;BME280;71595;52.180;4.512;2023-12-20T12:55:20;101438.47;;;9.18;76.93
82033;BME280;71595;52.180;4.512;2023-12-20T12:57:46;101433.78;;;9.18;76.83
82033;BME280;71595;52.180;4.512;2023-12-20T13:00:18;101421.63;;;9.20;76.89